createdAt,value
2019-02-12T00:00:10.282Z,2.47
2019-02-12T00:03:17.798Z,2.50
2019-02-12T00:06:25.312Z,2.37
2019-02-12T00:09:32.861Z,2.30
2019-02-12T00:12:40.271Z,2.10
2019-02-12T00:15:47.562Z,2.13
2019-02-12T00:18:54.723Z,2.73
2019-02-12T00:22:02.099Z,2.03
2019-02-12T00:25:09.917Z,2.20
2019-02-12T00:28:17.327Z,2.40
2019-02-12T00:31:24.498Z,2.20
2019-02-12T00:34:31.759Z,1.67
2019-02-12T00:37:39.072Z,3.33
2019-02-12T00:40:46.453Z,3.13
2019-02-12T00:43:53.992Z,2.47
2019-02-12T00:47:01.360Z,2.40
2019-02-12T00:50:09.276Z,2.93
2019-02-12T00:53:16.544Z,2.57
2019-02-12T00:56:23.949Z,2.97
2019-02-12T00:59:31.572Z,3.03
2019-02-12T01:02:39.330Z,2.93
2019-02-12T01:05:46.957Z,3.93
2019-02-12T01:08:54.118Z,3.43
2019-02-12T01:12:01.274Z,3.27
2019-02-12T01:15:10.662Z,3.03
2019-02-12T01:18:18.032Z,3.73
2019-02-12T01:21:26.438Z,3.50
2019-02-12T01:24:34.091Z,3.57
2019-02-12T01:27:41.296Z,4.33
2019-02-12T01:30:48.873Z,3.60
2019-02-12T01:33:56.068Z,3.90
2019-02-12T01:37:03.963Z,3.77
2019-02-12T01:40:12.816Z,3.40
2019-02-12T01:43:20.804Z,3.77
2019-02-12T01:46:28.533Z,3.27
2019-02-12T01:49:36.013Z,3.47
2019-02-12T01:52:43.382Z,4.13
2019-02-12T01:59:06.608Z,3.47
2019-02-12T02:02:13.860Z,3.70
2019-02-12T02:05:21.427Z,4.53
2019-02-12T02:08:28.649Z,3.63
2019-02-12T02:11:36.616Z,3.53
2019-02-12T02:14:44.400Z,3.40
2019-02-12T02:17:51.790Z,4.57
2019-02-12T02:20:58.977Z,3.70
2019-02-12T02:24:06.246Z,4.57
2019-02-12T02:27:13.639Z,3.77
2019-02-12T02:30:21.106Z,4.03
2019-02-12T02:33:28.318Z,3.13
2019-02-12T02:36:35.570Z,3.93
2019-02-12T02:39:42.847Z,2.93
2019-02-12T02:42:50.725Z,3.67
2019-02-12T02:45:58.133Z,3.53
2019-02-12T02:49:05.772Z,4.03
2019-02-12T02:52:13.431Z,3.93
2019-02-12T02:55:20.829Z,4.20
2019-02-12T02:58:28.793Z,3.63
2019-02-12T03:01:36.203Z,3.77
2019-02-12T03:04:43.584Z,3.87
2019-02-12T03:07:51.114Z,2.63
2019-02-12T03:10:58.669Z,3.37
2019-02-12T03:14:05.859Z,3.73
2019-02-12T03:17:13.519Z,3.33
2019-02-12T03:20:21.189Z,3.20
2019-02-12T03:23:28.657Z,3.47
2019-02-12T03:26:36.298Z,2.90
2019-02-12T03:29:43.789Z,3.30
2019-02-12T03:32:51.272Z,2.70
2019-02-12T03:35:58.589Z,3.53
2019-02-12T03:39:06.558Z,3.93
2019-02-12T03:42:14.121Z,3.37
2019-02-12T03:45:21.504Z,3.20
2019-02-12T03:48:28.776Z,2.87
2019-02-12T03:51:36.007Z,2.87
2019-02-12T03:54:43.484Z,2.93
2019-02-12T03:57:50.873Z,2.93
2019-02-12T04:00:58.392Z,3.40
2019-02-12T04:04:05.889Z,2.80
2019-02-12T04:07:13.292Z,3.17
2019-02-12T04:10:21.215Z,2.90
2019-02-12T04:13:29.487Z,3.60
2019-02-12T04:16:37.070Z,3.40
2019-02-12T04:19:44.262Z,3.20
2019-02-12T04:22:51.463Z,3.57
2019-02-12T04:25:58.639Z,2.97
2019-02-12T04:29:05.808Z,2.70
2019-02-12T04:32:13.093Z,3.27
2019-02-12T04:35:20.263Z,3.33
2019-02-12T04:38:27.431Z,3.90
2019-02-12T04:41:34.975Z,3.73
2019-02-12T04:44:42.404Z,3.30
2019-02-12T04:47:49.582Z,3.10
2019-02-12T04:50:57.125Z,3.13
2019-02-12T04:54:04.882Z,3.40
2019-02-12T04:57:12.169Z,3.70
2019-02-12T05:00:19.645Z,3.00
2019-02-12T05:03:27.091Z,3.30
2019-02-12T05:06:34.393Z,3.07
2019-02-12T05:09:44.251Z,3.10
2019-02-12T05:12:51.733Z,3.07
2019-02-12T05:15:59.019Z,2.93
2019-02-12T05:19:06.611Z,3.40
2019-02-12T05:22:14.894Z,3.40
2019-02-12T05:25:22.320Z,3.20
2019-02-12T05:28:29.546Z,2.40
2019-02-12T05:31:36.952Z,2.53
2019-02-12T05:34:44.459Z,2.47
2019-02-12T05:37:51.645Z,2.60
2019-02-12T05:40:59.097Z,2.33
2019-02-12T05:44:06.534Z,2.93
2019-02-12T05:47:13.829Z,2.70
2019-02-12T05:50:22.375Z,3.20
2019-02-12T05:53:29.840Z,2.60
2019-02-12T05:56:37.022Z,2.70
2019-02-12T06:00:06.548Z,2.63
2019-02-12T06:03:13.771Z,3.07
2019-02-12T06:06:21.251Z,2.80
2019-02-12T06:09:28.695Z,2.60
2019-02-12T06:12:35.970Z,2.37
2019-02-12T06:15:43.412Z,2.20
2019-02-12T06:18:50.581Z,2.07
2019-02-12T06:21:57.771Z,2.10
2019-02-12T06:25:07.807Z,0.80
2019-02-12T06:28:14.591Z,1.60
2019-02-12T06:31:21.768Z,1.33
2019-02-12T06:34:29.149Z,1.23
2019-02-12T06:37:36.854Z,0.90
2019-02-12T06:40:44.235Z,2.00
2019-02-12T06:43:51.792Z,2.00
2019-02-12T06:46:59.760Z,1.23
2019-02-12T06:50:08.456Z,2.10
2019-02-12T06:53:15.667Z,2.43
2019-02-12T06:56:22.839Z,2.23
2019-02-12T06:59:30.377Z,2.73
2019-02-12T07:03:10.134Z,2.70
2019-02-12T07:07:12.347Z,2.33
2019-02-12T07:10:30.235Z,2.23
2019-02-12T07:13:57.549Z,2.27
2019-02-12T07:17:59.373Z,1.57
2019-02-12T07:22:18.317Z,1.50
2019-02-12T07:26:08.119Z,1.60
2019-02-12T07:29:53.503Z,1.73
2019-02-12T07:33:49.853Z,1.90
2019-02-12T07:37:48.241Z,1.30
2019-02-12T07:41:51.716Z,1.30
2019-02-12T07:46:06.488Z,1.07
2019-02-12T07:50:12.178Z,1.37
2019-02-12T07:54:40.171Z,1.30
2019-02-12T07:58:50.392Z,1.50
2019-02-12T08:02:58.291Z,1.63
2019-02-12T08:06:39.181Z,0.77
2019-02-12T08:10:53.299Z,0.70
2019-02-12T08:15:02.634Z,0.60
2019-02-12T08:19:04.050Z,1.67
2019-02-12T08:23:19.606Z,2.27
2019-02-12T08:27:17.491Z,0.93
2019-02-12T08:31:14.461Z,0.80
2019-02-12T08:35:03.750Z,0.60
2019-02-12T08:39:17.150Z,1.00
2019-02-12T08:43:25.598Z,0.80
2019-02-12T08:47:28.290Z,0.60
2019-02-12T08:51:38.665Z,0.70
2019-02-12T08:55:36.870Z,0.80
2019-02-12T08:59:41.138Z,0.70
2019-02-12T09:03:41.485Z,1.00
2019-02-12T09:07:22.102Z,1.20
2019-02-12T09:11:25.476Z,0.93
2019-02-12T09:15:21.220Z,0.90
2019-02-12T09:19:02.436Z,0.67
2019-02-12T09:23:00.642Z,0.80
2019-02-12T09:26:53.882Z,1.10
2019-02-12T09:30:33.112Z,1.00
2019-02-12T09:34:19.707Z,1.20
2019-02-12T09:38:53.016Z,1.60
2019-02-12T09:42:38.868Z,1.57
2019-02-12T09:47:18.587Z,1.00
2019-02-12T09:51:32.346Z,1.43
2019-02-12T09:55:15.153Z,1.50
2019-02-12T09:58:53.574Z,1.13
2019-02-12T10:02:22.565Z,1.20
2019-02-12T10:06:40.755Z,1.40
2019-02-12T10:10:34.196Z,0.90
2019-02-12T10:14:31.577Z,0.57
2019-02-12T10:18:15.915Z,1.33
2019-02-12T10:21:50.265Z,0.33
2019-02-12T10:25:21.108Z,1.30
2019-02-12T10:29:13.496Z,0.47
2019-02-12T10:32:19.907Z,1.00
2019-02-12T10:35:27.614Z,0.97
2019-02-12T10:38:35.579Z,1.03
2019-02-12T10:41:43.046Z,1.00
2019-02-12T10:44:50.445Z,0.77
2019-02-12T10:47:58.250Z,1.30
2019-02-12T10:51:05.679Z,1.10
2019-02-12T10:54:13.708Z,1.13
2019-02-12T10:57:21.283Z,1.50
2019-02-12T11:00:28.758Z,1.43
2019-02-12T11:03:36.140Z,0.87
2019-02-12T11:06:43.328Z,1.63
2019-02-12T11:09:50.600Z,1.50
2019-02-12T11:12:58.282Z,1.80
2019-02-12T11:16:06.854Z,1.40
2019-02-12T11:19:14.265Z,1.40
2019-02-12T11:22:21.662Z,1.60
2019-02-12T11:25:28.880Z,1.30
2019-02-12T11:28:36.556Z,1.37
2019-02-12T11:31:43.826Z,0.83
2019-02-12T11:34:51.321Z,1.60
2019-02-12T11:37:59.150Z,0.63
2019-02-12T11:41:06.981Z,1.07
2019-02-12T11:44:14.464Z,1.33
2019-02-12T11:47:21.767Z,1.63
2019-02-12T11:50:29.182Z,1.60
2019-02-12T11:53:36.607Z,0.83
2019-02-12T11:56:44.013Z,0.83
2019-02-12T11:59:52.388Z,0.77
2019-02-12T12:03:00.108Z,1.67
2019-02-12T12:06:07.764Z,1.30
2019-02-12T12:09:14.946Z,0.63
2019-02-12T12:12:22.413Z,0.80
2019-02-12T12:15:29.801Z,0.80
2019-02-12T12:18:36.975Z,0.60
2019-02-12T12:21:45.547Z,0.67
2019-02-12T12:24:52.939Z,0.60
2019-02-12T12:28:00.377Z,1.00
2019-02-12T12:31:07.857Z,1.30
2019-02-12T12:34:15.066Z,0.93
2019-02-12T12:37:22.901Z,0.30
2019-02-12T12:40:30.423Z,0.90
2019-02-12T12:43:37.745Z,1.20
2019-02-12T12:46:45.410Z,1.60
2019-02-12T12:49:52.890Z,0.40
2019-02-12T12:53:00.123Z,0.80
2019-02-12T12:56:07.312Z,0.97
2019-02-12T12:59:14.799Z,0.87
2019-02-12T13:02:22.747Z,0.90
2019-02-12T13:05:30.249Z,1.00
2019-02-12T13:08:39.187Z,0.50
2019-02-12T13:11:46.623Z,0.90
2019-02-12T13:14:53.806Z,1.10
2019-02-12T13:18:02.243Z,1.33
2019-02-12T13:21:09.989Z,1.10
2019-02-12T13:24:17.498Z,0.80
2019-02-12T13:27:24.729Z,0.67
2019-02-12T13:30:32.441Z,0.97
2019-02-12T13:33:39.768Z,0.90
2019-02-12T13:36:47.420Z,1.07
2019-02-12T13:39:54.614Z,1.30
2019-02-12T13:43:02.049Z,1.00
2019-02-12T13:46:09.425Z,1.10
2019-02-12T13:49:16.822Z,1.27
2019-02-12T13:52:24.306Z,1.27
2019-02-12T13:55:31.804Z,1.10
2019-02-12T13:58:39.227Z,1.13
2019-02-12T14:01:46.452Z,1.10
2019-02-12T14:04:53.744Z,1.83
2019-02-12T14:08:01.525Z,1.17
2019-02-12T14:11:08.908Z,1.60
2019-02-12T14:14:16.510Z,3.00
2019-02-12T14:17:23.768Z,1.70
2019-02-12T14:20:31.151Z,1.73
2019-02-12T14:23:38.512Z,2.17
2019-02-12T14:26:46.231Z,2.20
2019-02-12T14:29:53.511Z,1.73
2019-02-12T14:33:01.144Z,1.73
2019-02-12T14:36:09.587Z,1.70
2019-02-12T14:39:18.065Z,2.53
2019-02-12T14:42:26.594Z,2.43
2019-02-12T14:45:34.447Z,6.60
2019-02-12T14:48:42.063Z,3.13
2019-02-12T14:51:49.662Z,3.20
2019-02-12T14:54:56.884Z,2.70
2019-02-12T14:58:04.304Z,2.60
2019-02-12T15:01:11.895Z,3.60
2019-02-12T15:04:19.297Z,4.80
2019-02-12T15:07:26.716Z,5.33
2019-02-12T15:10:33.981Z,5.33
2019-02-12T15:13:41.276Z,2.97
2019-02-12T15:16:48.561Z,3.47
2019-02-12T15:19:55.871Z,1.53
2019-02-12T15:23:03.343Z,1.90
2019-02-12T15:26:11.136Z,2.47
2019-02-12T15:29:19.264Z,3.30
2019-02-12T15:32:27.098Z,3.13
2019-02-12T15:35:37.138Z,3.00
2019-02-12T15:38:45.764Z,2.40
2019-02-12T15:41:53.485Z,2.40
2019-02-12T15:45:00.892Z,3.13
2019-02-12T15:48:08.688Z,2.07
2019-02-12T15:51:16.002Z,2.00
2019-02-12T15:54:24.395Z,2.17
2019-02-12T15:57:31.680Z,2.17
2019-02-12T16:00:43.436Z,1.97
2019-02-12T16:03:50.933Z,1.87
2019-02-12T16:06:59.869Z,2.67
2019-02-12T16:10:12.219Z,1.60
2019-02-12T16:13:19.706Z,3.60
2019-02-12T16:16:28.052Z,2.47
2019-02-12T16:19:37.162Z,2.10
2019-02-12T16:22:44.910Z,2.20
2019-02-12T16:25:59.322Z,2.67
2019-02-12T16:29:05.009Z,2.43
2019-02-12T16:32:12.895Z,2.53
2019-02-12T16:35:20.228Z,2.10
2019-02-12T16:38:27.705Z,2.33
2019-02-12T16:41:35.519Z,2.47
2019-02-12T16:44:43.926Z,2.77
2019-02-12T16:47:52.232Z,3.93
2019-02-12T16:51:00.679Z,4.03
2019-02-12T16:54:08.533Z,3.70
2019-02-12T16:57:16.365Z,3.93
2019-02-12T17:07:02.073Z,3.03
2019-02-12T17:10:10.646Z,3.03
2019-02-12T17:13:18.338Z,2.87
2019-02-12T17:16:30.377Z,3.00
2019-02-12T17:19:43.058Z,5.17
2019-02-12T17:22:52.986Z,4.40
2019-02-12T17:26:06.210Z,5.03
2019-02-12T17:29:14.229Z,5.20
2019-02-12T17:32:22.355Z,5.00
2019-02-12T17:35:32.107Z,4.23
2019-02-12T17:38:40.358Z,3.87
2019-02-12T17:41:48.115Z,3.67
2019-02-12T17:44:55.879Z,3.10
2019-02-12T17:48:03.634Z,2.33
2019-02-12T17:51:11.770Z,3.57
2019-02-12T17:54:19.560Z,4.37
2019-02-12T17:57:27.284Z,4.07
2019-02-12T18:00:39.470Z,4.03
2019-02-12T18:03:49.555Z,3.53
2019-02-12T18:06:57.552Z,3.47
2019-02-12T18:10:05.294Z,3.70
2019-02-12T18:13:12.592Z,3.53
2019-02-12T18:16:20.286Z,3.17
2019-02-12T18:19:27.830Z,5.00
2019-02-12T18:22:35.790Z,5.53
2019-02-12T18:25:43.337Z,4.87
2019-02-12T18:28:51.072Z,5.00
2019-02-12T18:31:58.944Z,3.93
2019-02-12T18:35:06.941Z,3.60
2019-02-12T18:38:14.322Z,3.67
2019-02-12T18:41:21.677Z,4.30
2019-02-12T18:44:29.308Z,4.80
2019-02-12T18:47:36.558Z,5.77
2019-02-12T18:50:44.155Z,5.53
2019-02-12T18:53:51.356Z,15.13
2019-02-12T18:56:58.866Z,10.43
2019-02-12T19:00:10.772Z,15.13
2019-02-12T19:03:18.207Z,5.60
2019-02-12T19:06:25.443Z,6.10
2019-02-12T19:09:32.720Z,5.70
2019-02-12T19:12:40.646Z,8.80
2019-02-12T19:15:48.314Z,6.93
2019-02-12T19:18:55.910Z,13.00
2019-02-12T19:22:03.927Z,7.47
2019-02-12T19:25:12.215Z,8.70
2019-02-12T19:28:19.906Z,5.20
2019-02-12T19:31:29.735Z,6.00
2019-02-12T19:34:37.877Z,4.70
2019-02-12T19:37:45.602Z,4.60
2019-02-12T19:40:53.673Z,5.13
2019-02-12T19:44:01.857Z,4.97
2019-02-12T19:47:09.646Z,6.43
2019-02-12T19:50:17.053Z,4.87
2019-02-12T19:53:24.929Z,6.00
2019-02-12T19:56:32.676Z,6.90
2019-02-12T19:59:40.097Z,5.60
2019-02-12T20:02:47.961Z,4.87
2019-02-12T20:05:55.784Z,5.03
2019-02-12T20:09:07.282Z,4.50
2019-02-12T20:12:15.497Z,4.53
2019-02-12T20:15:23.604Z,5.10
2019-02-12T20:18:31.359Z,5.60
2019-02-12T20:21:39.508Z,5.30
2019-02-12T20:24:47.711Z,4.23
2019-02-12T20:27:55.313Z,4.77
2019-02-12T20:31:03.659Z,5.13
2019-02-12T20:34:11.418Z,4.17
2019-02-12T20:37:19.163Z,4.67
2019-02-12T20:40:27.302Z,4.73
2019-02-12T20:43:34.887Z,4.60
2019-02-12T20:46:42.455Z,4.93
2019-02-12T20:49:50.305Z,4.33
2019-02-12T20:52:58.010Z,4.50
2019-02-12T20:56:05.443Z,3.80
2019-02-12T20:59:13.887Z,5.00
2019-02-12T21:02:21.471Z,6.70
2019-02-12T21:05:29.828Z,3.97
2019-02-12T21:08:38.130Z,3.43
2019-02-12T21:11:45.550Z,3.57
2019-02-12T21:14:53.597Z,3.30
2019-02-12T21:18:03.701Z,4.10
2019-02-12T21:21:12.173Z,3.47
2019-02-12T21:24:20.126Z,3.80
2019-02-12T21:27:28.234Z,5.60
2019-02-12T21:30:36.075Z,6.17
2019-02-12T21:33:44.025Z,5.23
2019-02-12T21:36:53.175Z,5.63
2019-02-12T21:40:00.736Z,4.50
2019-02-12T21:43:08.257Z,4.80
2019-02-12T21:46:15.683Z,5.63
2019-02-12T21:49:24.106Z,5.13
2019-02-12T21:52:31.790Z,5.90
2019-02-12T21:55:39.381Z,7.23
2019-02-12T21:58:48.832Z,5.30
2019-02-12T22:01:56.470Z,4.57
2019-02-12T22:05:04.598Z,3.87
2019-02-12T22:08:12.291Z,3.67
2019-02-12T22:11:19.877Z,3.87
2019-02-12T22:14:27.488Z,3.93
2019-02-12T22:17:34.976Z,3.57
2019-02-12T22:20:42.421Z,2.97
2019-02-12T22:23:49.928Z,3.33
2019-02-12T22:26:57.771Z,3.80
2019-02-12T22:30:10.926Z,3.60
2019-02-12T22:33:19.224Z,3.90
2019-02-12T22:36:27.506Z,3.67
2019-02-12T22:39:35.228Z,4.33
2019-02-12T22:42:43.243Z,3.93
2019-02-12T22:45:50.578Z,3.90
2019-02-12T22:48:57.794Z,3.60
2019-02-12T22:52:05.329Z,4.23
2019-02-12T22:55:12.839Z,3.70
2019-02-12T22:58:20.144Z,5.10
2019-02-12T23:01:36.507Z,3.80
2019-02-12T23:04:44.080Z,3.47
2019-02-12T23:07:51.924Z,3.50
2019-02-12T23:10:59.973Z,4.00
2019-02-12T23:14:07.417Z,3.47
2019-02-12T23:17:14.784Z,3.30
2019-02-12T23:20:21.963Z,4.03
2019-02-12T23:23:29.701Z,3.97
2019-02-12T23:26:37.508Z,3.93
2019-02-12T23:29:44.793Z,3.47
2019-02-12T23:32:52.694Z,4.20
2019-02-12T23:36:00.119Z,3.70
2019-02-12T23:39:08.324Z,3.43
2019-02-12T23:42:16.036Z,3.17
2019-02-12T23:45:23.907Z,3.50
2019-02-12T23:48:31.356Z,3.57
2019-02-12T23:51:38.535Z,4.40
2019-02-12T23:54:45.987Z,4.10
2019-02-12T23:57:53.159Z,3.63
